sensor_id;sensor_type;location;lat;lon;timestamp;P1;durP1;ratioP1;P2;durP2;ratioP2
51602;SDS011;37954;51.980;5.850;2022-08-19T00:00:46;3.38;;;2.90;;
51602;SDS011;37954;51.980;5.850;2022-08-19T00:09:35;3.30;;;3.00;;
51602;SDS011;37954;51.980;5.850;2022-08-19T00:13:47;3.33;;;2.95;;
51602;SDS011;37954;51.980;5.850;2022-08-19T00:18:00;4.22;;;2.80;;
51602;SDS011;37954;51.980;5.850;2022-08-19T00:22:12;3.00;;;2.53;;
51602;SDS011;37954;51.980;5.850;2022-08-19T00:26:24;3.28;;;2.97;;
51602;SDS011;37954;51.980;5.850;2022-08-19T00:30:36;3.38;;;3.08;;
51602;SDS011;37954;51.980;5.850;2022-08-19T00:34:48;3.17;;;2.97;;
51602;SDS011;37954;51.980;5.850;2022-08-19T00:39:00;3.80;;;3.50;;
51602;SDS011;37954;51.980;5.850;2022-08-19T00:43:12;4.55;;;4.15;;
51602;SDS011;37954;51.980;5.850;2022-08-19T00:47:29;4.20;;;3.80;;
51602;SDS011;37954;51.980;5.850;2022-08-19T00:51:41;7.35;;;3.63;;
51602;SDS011;37954;51.980;5.850;2022-08-19T00:55:56;4.45;;;4.05;;
51602;SDS011;37954;51.980;5.850;2022-08-19T01:00:12;3.88;;;3.58;;
51602;SDS011;37954;51.980;5.850;2022-08-19T01:04:25;3.97;;;3.67;;
51602;SDS011;37954;51.980;5.850;2022-08-19T01:08:37;8.43;;;4.15;;
51602;SDS011;37954;51.980;5.850;2022-08-19T01:12:49;4.30;;;3.90;;
51602;SDS011;37954;51.980;5.850;2022-08-19T01:17:02;5.22;;;4.75;;
51602;SDS011;37954;51.980;5.850;2022-08-19T01:21:34;6.10;;;4.55;;
51602;SDS011;37954;51.980;5.850;2022-08-19T01:25:51;4.28;;;3.88;;
51602;SDS011;37954;51.980;5.850;2022-08-19T01:30:05;4.75;;;4.13;;
51602;SDS011;37954;51.980;5.850;2022-08-19T01:34:18;4.95;;;4.50;;
51602;SDS011;37954;51.980;5.850;2022-08-19T01:38:30;5.63;;;4.85;;
51602;SDS011;37954;51.980;5.850;2022-08-19T01:42:42;5.20;;;4.80;;
51602;SDS011;37954;51.980;5.850;2022-08-19T01:46:54;4.85;;;4.43;;
51602;SDS011;37954;51.980;5.850;2022-08-19T01:51:06;5.05;;;4.65;;
51602;SDS011;37954;51.980;5.850;2022-08-19T01:55:20;5.47;;;4.97;;
51602;SDS011;37954;51.980;5.850;2022-08-19T01:59:34;6.03;;;4.88;;
51602;SDS011;37954;51.980;5.850;2022-08-19T02:03:47;7.25;;;5.03;;
51602;SDS011;37954;51.980;5.850;2022-08-19T02:07:59;5.13;;;4.63;;
51602;SDS011;37954;51.980;5.850;2022-08-19T02:12:11;4.78;;;4.38;;
51602;SDS011;37954;51.980;5.850;2022-08-19T02:16:22;5.78;;;5.18;;
51602;SDS011;37954;51.980;5.850;2022-08-19T02:20:35;12.75;;;5.80;;
51602;SDS011;37954;51.980;5.850;2022-08-19T02:24:48;5.47;;;4.97;;
51602;SDS011;37954;51.980;5.850;2022-08-19T02:29:00;5.05;;;4.63;;
51602;SDS011;37954;51.980;5.850;2022-08-19T02:33:11;5.55;;;5.00;;
51602;SDS011;37954;51.980;5.850;2022-08-19T02:37:23;6.55;;;5.88;;
51602;SDS011;37954;51.980;5.850;2022-08-19T02:41:53;5.15;;;4.70;;
51602;SDS011;37954;51.980;5.850;2022-08-19T02:46:16;5.45;;;5.05;;
51602;SDS011;37954;51.980;5.850;2022-08-19T02:50:38;5.15;;;4.72;;
51602;SDS011;37954;51.980;5.850;2022-08-19T02:55:03;6.13;;;5.55;;
51602;SDS011;37954;51.980;5.850;2022-08-19T02:59:16;5.57;;;5.00;;
51602;SDS011;37954;51.980;5.850;2022-08-19T03:03:30;8.35;;;4.97;;
51602;SDS011;37954;51.980;5.850;2022-08-19T03:07:43;6.75;;;5.30;;
51602;SDS011;37954;51.980;5.850;2022-08-19T03:11:54;5.40;;;4.88;;
51602;SDS011;37954;51.980;5.850;2022-08-19T03:16:06;6.00;;;5.35;;
51602;SDS011;37954;51.980;5.850;2022-08-19T03:20:18;6.18;;;5.65;;
51602;SDS011;37954;51.980;5.850;2022-08-19T03:24:30;6.20;;;5.60;;
51602;SDS011;37954;51.980;5.850;2022-08-19T03:28:43;6.10;;;5.50;;
51602;SDS011;37954;51.980;5.850;2022-08-19T03:33:08;5.75;;;5.22;;
51602;SDS011;37954;51.980;5.850;2022-08-19T03:37:28;6.32;;;5.40;;
51602;SDS011;37954;51.980;5.850;2022-08-19T03:41:41;5.95;;;5.35;;
51602;SDS011;37954;51.980;5.850;2022-08-19T03:46:00;6.15;;;5.65;;
51602;SDS011;37954;51.980;5.850;2022-08-19T03:50:13;11.60;;;5.72;;
51602;SDS011;37954;51.980;5.850;2022-08-19T03:54:26;6.65;;;6.05;;
51602;SDS011;37954;51.980;5.850;2022-08-19T03:58:39;7.25;;;6.32;;
51602;SDS011;37954;51.980;5.850;2022-08-19T04:02:56;7.68;;;6.97;;
51602;SDS011;37954;51.980;5.850;2022-08-19T04:07:11;6.80;;;6.20;;
51602;SDS011;37954;51.980;5.850;2022-08-19T04:11:28;6.53;;;6.00;;
51602;SDS011;37954;51.980;5.850;2022-08-19T04:15:54;7.13;;;5.95;;
51602;SDS011;37954;51.980;5.850;2022-08-19T04:20:06;6.30;;;5.80;;
51602;SDS011;37954;51.980;5.850;2022-08-19T04:24:18;6.65;;;5.10;;
51602;SDS011;37954;51.980;5.850;2022-08-19T04:28:30;6.00;;;5.32;;
51602;SDS011;37954;51.980;5.850;2022-08-19T04:32:44;6.60;;;6.00;;
51602;SDS011;37954;51.980;5.850;2022-08-19T04:36:56;5.60;;;5.10;;
51602;SDS011;37954;51.980;5.850;2022-08-19T04:41:09;6.80;;;5.95;;
51602;SDS011;37954;51.980;5.850;2022-08-19T04:45:39;5.78;;;5.22;;
51602;SDS011;37954;51.980;5.850;2022-08-19T04:49:54;6.47;;;5.57;;
51602;SDS011;37954;51.980;5.850;2022-08-19T04:54:06;5.75;;;5.25;;
51602;SDS011;37954;51.980;5.850;2022-08-19T04:58:18;5.80;;;5.30;;
51602;SDS011;37954;51.980;5.850;2022-08-19T05:02:29;6.03;;;5.53;;
51602;SDS011;37954;51.980;5.850;2022-08-19T05:06:41;7.10;;;6.43;;
51602;SDS011;37954;51.980;5.850;2022-08-19T05:10:54;5.72;;;5.22;;
51602;SDS011;37954;51.980;5.850;2022-08-19T05:15:06;6.13;;;5.57;;
51602;SDS011;37954;51.980;5.850;2022-08-19T05:19:19;6.75;;;6.18;;
51602;SDS011;37954;51.980;5.850;2022-08-19T05:23:49;7.35;;;6.68;;
51602;SDS011;37954;51.980;5.850;2022-08-19T05:28:01;6.65;;;6.05;;
51602;SDS011;37954;51.980;5.850;2022-08-19T05:32:13;8.57;;;7.78;;
51602;SDS011;37954;51.980;5.850;2022-08-19T05:36:25;9.32;;;8.40;;
51602;SDS011;37954;51.980;5.850;2022-08-19T05:40:38;10.45;;;9.23;;
51602;SDS011;37954;51.980;5.850;2022-08-19T05:44:50;11.23;;;10.13;;
51602;SDS011;37954;51.980;5.850;2022-08-19T05:49:02;10.02;;;9.13;;
51602;SDS011;37954;51.980;5.850;2022-08-19T05:53:16;7.82;;;7.13;;
51602;SDS011;37954;51.980;5.850;2022-08-19T05:57:28;7.55;;;6.85;;
51602;SDS011;37954;51.980;5.850;2022-08-19T06:01:41;7.32;;;6.63;;
51602;SDS011;37954;51.980;5.850;2022-08-19T06:05:54;7.20;;;6.50;;
51602;SDS011;37954;51.980;5.850;2022-08-19T06:10:07;7.05;;;6.38;;
51602;SDS011;37954;51.980;5.850;2022-08-19T06:14:22;7.93;;;6.80;;
51602;SDS011;37954;51.980;5.850;2022-08-19T06:18:38;7.75;;;7.05;;
51602;SDS011;37954;51.980;5.850;2022-08-19T06:22:50;8.05;;;7.28;;
51602;SDS011;37954;51.980;5.850;2022-08-19T06:27:02;7.68;;;6.93;;
51602;SDS011;37954;51.980;5.850;2022-08-19T06:31:19;9.65;;;7.82;;
51602;SDS011;37954;51.980;5.850;2022-08-19T06:35:38;7.65;;;6.95;;
51602;SDS011;37954;51.980;5.850;2022-08-19T06:39:50;8.98;;;7.95;;
51602;SDS011;37954;51.980;5.850;2022-08-19T06:44:02;8.60;;;7.80;;
51602;SDS011;37954;51.980;5.850;2022-08-19T06:48:14;10.43;;;9.43;;
51602;SDS011;37954;51.980;5.850;2022-08-19T06:52:34;12.40;;;10.73;;
51602;SDS011;37954;51.980;5.850;2022-08-19T06:56:48;15.43;;;12.73;;
51602;SDS011;37954;51.980;5.850;2022-08-19T07:01:03;20.25;;;15.00;;
51602;SDS011;37954;51.980;5.850;2022-08-19T07:05:19;21.70;;;16.98;;
51602;SDS011;37954;51.980;5.850;2022-08-19T07:09:31;21.90;;;18.65;;
51602;SDS011;37954;51.980;5.850;2022-08-19T07:13:43;28.38;;;20.63;;
51602;SDS011;37954;51.980;5.850;2022-08-19T07:17:56;23.70;;;19.42;;
51602;SDS011;37954;51.980;5.850;2022-08-19T07:22:08;28.55;;;19.75;;
51602;SDS011;37954;51.980;5.850;2022-08-19T07:26:24;32.08;;;22.92;;
51602;SDS011;37954;51.980;5.850;2022-08-19T07:30:39;29.45;;;21.83;;
51602;SDS011;37954;51.980;5.850;2022-08-19T07:34:54;29.98;;;22.30;;
51602;SDS011;37954;51.980;5.850;2022-08-19T07:39:08;38.67;;;24.10;;
51602;SDS011;37954;51.980;5.850;2022-08-19T07:43:22;30.67;;;23.65;;
51602;SDS011;37954;51.980;5.850;2022-08-19T07:47:45;28.45;;;23.92;;
51602;SDS011;37954;51.980;5.850;2022-08-19T07:52:09;29.75;;;24.67;;
51602;SDS011;37954;51.980;5.850;2022-08-19T07:56:21;36.60;;;24.13;;
51602;SDS011;37954;51.980;5.850;2022-08-19T08:00:33;30.23;;;23.25;;
51602;SDS011;37954;51.980;5.850;2022-08-19T08:04:46;29.58;;;24.80;;
51602;SDS011;37954;51.980;5.850;2022-08-19T08:09:19;26.38;;;23.60;;
51602;SDS011;37954;51.980;5.850;2022-08-19T08:13:34;27.27;;;22.63;;
51602;SDS011;37954;51.980;5.850;2022-08-19T08:17:49;24.88;;;22.13;;
51602;SDS011;37954;51.980;5.850;2022-08-19T08:22:02;30.17;;;23.10;;
51602;SDS011;37954;51.980;5.850;2022-08-19T08:26:14;31.63;;;23.65;;
51602;SDS011;37954;51.980;5.850;2022-08-19T08:30:30;26.05;;;22.58;;
51602;SDS011;37954;51.980;5.850;2022-08-19T08:34:44;28.05;;;22.33;;
51602;SDS011;37954;51.980;5.850;2022-08-19T08:39:02;22.65;;;19.75;;
51602;SDS011;37954;51.980;5.850;2022-08-19T08:47:36;20.85;;;18.48;;
51602;SDS011;37954;51.980;5.850;2022-08-19T08:51:54;21.58;;;18.00;;
51602;SDS011;37954;51.980;5.850;2022-08-19T08:56:13;19.40;;;17.27;;
51602;SDS011;37954;51.980;5.850;2022-08-19T09:00:36;17.80;;;16.02;;
51602;SDS011;37954;51.980;5.850;2022-08-19T09:04:50;19.70;;;16.25;;
51602;SDS011;37954;51.980;5.850;2022-08-19T09:09:04;18.92;;;16.73;;
51602;SDS011;37954;51.980;5.850;2022-08-19T09:13:26;16.15;;;14.55;;
51602;SDS011;37954;51.980;5.850;2022-08-19T09:17:48;15.77;;;14.07;;
51602;SDS011;37954;51.980;5.850;2022-08-19T09:22:02;16.33;;;14.63;;
51602;SDS011;37954;51.980;5.850;2022-08-19T09:26:15;18.63;;;15.52;;
51602;SDS011;37954;51.980;5.850;2022-08-19T09:30:31;17.00;;;15.20;;
51602;SDS011;37954;51.980;5.850;2022-08-19T09:34:51;16.45;;;14.70;;
51602;SDS011;37954;51.980;5.850;2022-08-19T09:39:06;15.35;;;13.38;;
51602;SDS011;37954;51.980;5.850;2022-08-19T09:43:26;16.35;;;12.70;;
51602;SDS011;37954;51.980;5.850;2022-08-19T09:47:54;16.33;;;13.32;;
51602;SDS011;37954;51.980;5.850;2022-08-19T09:52:08;15.38;;;13.82;;
51602;SDS011;37954;51.980;5.850;2022-08-19T09:56:23;15.68;;;11.43;;
51602;SDS011;37954;51.980;5.850;2022-08-19T10:00:36;15.40;;;13.82;;
51602;SDS011;37954;51.980;5.850;2022-08-19T10:04:49;14.25;;;12.85;;
51602;SDS011;37954;51.980;5.850;2022-08-19T10:09:19;13.35;;;11.50;;
51602;SDS011;37954;51.980;5.850;2022-08-19T10:13:45;13.13;;;11.25;;
51602;SDS011;37954;51.980;5.850;2022-08-19T10:17:56;14.20;;;11.15;;
51602;SDS011;37954;51.980;5.850;2022-08-19T10:22:11;17.48;;;11.88;;
51602;SDS011;37954;51.980;5.850;2022-08-19T10:26:26;12.60;;;11.30;;
51602;SDS011;37954;51.980;5.850;2022-08-19T10:30:40;13.93;;;11.82;;
51602;SDS011;37954;51.980;5.850;2022-08-19T10:34:53;12.95;;;11.57;;
51602;SDS011;37954;51.980;5.850;2022-08-19T10:39:08;13.65;;;10.82;;
51602;SDS011;37954;51.980;5.850;2022-08-19T10:43:21;13.93;;;11.55;;
51602;SDS011;37954;51.980;5.850;2022-08-19T10:47:33;11.05;;;10.05;;
51602;SDS011;37954;51.980;5.850;2022-08-19T10:51:45;12.88;;;11.45;;
51602;SDS011;37954;51.980;5.850;2022-08-19T10:56:20;13.40;;;12.07;;
51602;SDS011;37954;51.980;5.850;2022-08-19T11:00:56;11.93;;;10.27;;
51602;SDS011;37954;51.980;5.850;2022-08-19T11:05:09;27.92;;;9.82;;
51602;SDS011;37954;51.980;5.850;2022-08-19T11:09:24;10.05;;;9.05;;
51602;SDS011;37954;51.980;5.850;2022-08-19T11:13:44;11.82;;;9.57;;
51602;SDS011;37954;51.980;5.850;2022-08-19T11:17:57;16.83;;;11.30;;
51602;SDS011;37954;51.980;5.850;2022-08-19T11:22:09;11.18;;;9.57;;
51602;SDS011;37954;51.980;5.850;2022-08-19T11:26:26;12.13;;;10.38;;
51602;SDS011;37954;51.980;5.850;2022-08-19T11:30:39;9.50;;;8.60;;
51602;SDS011;37954;51.980;5.850;2022-08-19T11:34:50;11.38;;;10.23;;
51602;SDS011;37954;51.980;5.850;2022-08-19T11:39:03;11.27;;;8.75;;
51602;SDS011;37954;51.980;5.850;2022-08-19T11:43:17;9.63;;;8.68;;
51602;SDS011;37954;51.980;5.850;2022-08-19T11:47:29;9.27;;;8.38;;
51602;SDS011;37954;51.980;5.850;2022-08-19T11:51:42;10.75;;;9.43;;
51602;SDS011;37954;51.980;5.850;2022-08-19T11:55:54;9.55;;;8.57;;
51602;SDS011;37954;51.980;5.850;2022-08-19T12:00:07;8.65;;;7.80;;
51602;SDS011;37954;51.980;5.850;2022-08-19T12:04:19;10.60;;;8.88;;
51602;SDS011;37954;51.980;5.850;2022-08-19T12:08:31;10.00;;;8.93;;
51602;SDS011;37954;51.980;5.850;2022-08-19T12:12:43;10.63;;;9.60;;
51602;SDS011;37954;51.980;5.850;2022-08-19T12:17:08;11.10;;;10.10;;
51602;SDS011;37954;51.980;5.850;2022-08-19T12:21:25;10.55;;;9.63;;
51602;SDS011;37954;51.980;5.850;2022-08-19T12:25:46;10.93;;;9.10;;
51602;SDS011;37954;51.980;5.850;2022-08-19T12:30:03;11.15;;;10.05;;
51602;SDS011;37954;51.980;5.850;2022-08-19T12:34:16;11.52;;;10.38;;
51602;SDS011;37954;51.980;5.850;2022-08-19T12:38:28;13.57;;;12.18;;
51602;SDS011;37954;51.980;5.850;2022-08-19T12:42:40;13.60;;;11.00;;
51602;SDS011;37954;51.980;5.850;2022-08-19T12:46:56;11.57;;;10.45;;
51602;SDS011;37954;51.980;5.850;2022-08-19T12:51:09;10.85;;;9.75;;
51602;SDS011;37954;51.980;5.850;2022-08-19T12:55:23;15.80;;;11.43;;
51602;SDS011;37954;51.980;5.850;2022-08-19T12:59:36;13.07;;;9.93;;
51602;SDS011;37954;51.980;5.850;2022-08-19T13:03:49;13.40;;;10.85;;
51602;SDS011;37954;51.980;5.850;2022-08-19T13:08:01;15.73;;;13.45;;
51602;SDS011;37954;51.980;5.850;2022-08-19T13:12:13;11.20;;;10.05;;
51602;SDS011;37954;51.980;5.850;2022-08-19T13:16:25;12.40;;;11.20;;
51602;SDS011;37954;51.980;5.850;2022-08-19T13:20:39;11.77;;;10.05;;
51602;SDS011;37954;51.980;5.850;2022-08-19T13:24:51;9.98;;;8.98;;
51602;SDS011;37954;51.980;5.850;2022-08-19T13:29:04;12.27;;;9.27;;
51602;SDS011;37954;51.980;5.850;2022-08-19T13:33:34;12.35;;;9.77;;
51602;SDS011;37954;51.980;5.850;2022-08-19T13:37:46;11.23;;;9.80;;
51602;SDS011;37954;51.980;5.850;2022-08-19T13:41:58;12.38;;;10.32;;
51602;SDS011;37954;51.980;5.850;2022-08-19T13:46:11;9.02;;;8.13;;
51602;SDS011;37954;51.980;5.850;2022-08-19T13:50:26;10.75;;;8.05;;
51602;SDS011;37954;51.980;5.850;2022-08-19T13:54:40;8.57;;;7.78;;
51602;SDS011;37954;51.980;5.850;2022-08-19T13:58:51;9.00;;;8.20;;
51602;SDS011;37954;51.980;5.850;2022-08-19T14:03:04;9.77;;;8.88;;
51602;SDS011;37954;51.980;5.850;2022-08-19T14:07:19;9.60;;;8.55;;
51602;SDS011;37954;51.980;5.850;2022-08-19T14:11:31;10.73;;;9.63;;
51602;SDS011;37954;51.980;5.850;2022-08-19T14:15:43;13.50;;;10.23;;
51602;SDS011;37954;51.980;5.850;2022-08-19T14:19:56;10.27;;;8.80;;
51602;SDS011;37954;51.980;5.850;2022-08-19T14:24:20;11.77;;;10.65;;
51602;SDS011;37954;51.980;5.850;2022-08-19T14:28:32;9.40;;;8.45;;
51602;SDS011;37954;51.980;5.850;2022-08-19T14:32:43;13.60;;;10.68;;
51602;SDS011;37954;51.980;5.850;2022-08-19T14:36:55;9.95;;;8.85;;
51602;SDS011;37954;51.980;5.850;2022-08-19T14:41:09;9.75;;;8.70;;
51602;SDS011;37954;51.980;5.850;2022-08-19T14:45:22;12.85;;;9.43;;
51602;SDS011;37954;51.980;5.850;2022-08-19T14:49:34;9.73;;;8.18;;
51602;SDS011;37954;51.980;5.850;2022-08-19T14:53:55;8.95;;;6.43;;
51602;SDS011;37954;51.980;5.850;2022-08-19T14:58:07;5.20;;;4.57;;
51602;SDS011;37954;51.980;5.850;2022-08-19T15:02:40;6.60;;;4.55;;
51602;SDS011;37954;51.980;5.850;2022-08-19T15:06:55;5.88;;;4.30;;
51602;SDS011;37954;51.980;5.850;2022-08-19T15:11:08;5.30;;;4.80;;
51602;SDS011;37954;51.980;5.850;2022-08-19T15:15:21;5.80;;;5.30;;
51602;SDS011;37954;51.980;5.850;2022-08-19T15:19:33;5.40;;;4.68;;
51602;SDS011;37954;51.980;5.850;2022-08-19T15:23:47;4.28;;;3.97;;
51602;SDS011;37954;51.980;5.850;2022-08-19T15:28:01;3.67;;;3.38;;
51602;SDS011;37954;51.980;5.850;2022-08-19T15:32:14;4.30;;;3.40;;
51602;SDS011;37954;51.980;5.850;2022-08-19T15:36:26;3.42;;;2.58;;
51602;SDS011;37954;51.980;5.850;2022-08-19T15:40:38;2.25;;;2.05;;
51602;SDS011;37954;51.980;5.850;2022-08-19T15:44:51;2.05;;;1.90;;
51602;SDS011;37954;51.980;5.850;2022-08-19T15:49:04;1.95;;;1.85;;
51602;SDS011;37954;51.980;5.850;2022-08-19T15:53:17;2.40;;;2.20;;
51602;SDS011;37954;51.980;5.850;2022-08-19T15:57:29;2.00;;;1.90;;
51602;SDS011;37954;51.980;5.850;2022-08-19T16:01:40;1.65;;;1.55;;
51602;SDS011;37954;51.980;5.850;2022-08-19T16:06:11;1.80;;;1.70;;
51602;SDS011;37954;51.980;5.850;2022-08-19T16:10:38;5.30;;;1.77;;
51602;SDS011;37954;51.980;5.850;2022-08-19T16:14:50;1.98;;;1.70;;
51602;SDS011;37954;51.980;5.850;2022-08-19T16:19:03;1.70;;;1.60;;
51602;SDS011;37954;51.980;5.850;2022-08-19T16:23:22;1.70;;;1.60;;
51602;SDS011;37954;51.980;5.850;2022-08-19T16:27:34;4.25;;;1.70;;
51602;SDS011;37954;51.980;5.850;2022-08-19T16:31:46;2.13;;;2.00;;
51602;SDS011;37954;51.980;5.850;2022-08-19T16:35:58;1.90;;;1.80;;
51602;SDS011;37954;51.980;5.850;2022-08-19T16:40:18;2.47;;;2.28;;
51602;SDS011;37954;51.980;5.850;2022-08-19T16:44:29;2.20;;;1.95;;
51602;SDS011;37954;51.980;5.850;2022-08-19T16:48:41;2.80;;;2.20;;
51602;SDS011;37954;51.980;5.850;2022-08-19T16:52:55;2.80;;;2.60;;
51602;SDS011;37954;51.980;5.850;2022-08-19T16:57:08;3.33;;;3.13;;
51602;SDS011;37954;51.980;5.850;2022-08-19T17:01:22;4.43;;;3.20;;
51602;SDS011;37954;51.980;5.850;2022-08-19T17:05:34;3.75;;;3.45;;
51602;SDS011;37954;51.980;5.850;2022-08-19T17:09:45;3.50;;;3.20;;
51602;SDS011;37954;51.980;5.850;2022-08-19T17:14:01;3.42;;;3.13;;
51602;SDS011;37954;51.980;5.850;2022-08-19T17:18:15;3.28;;;2.97;;
51602;SDS011;37954;51.980;5.850;2022-08-19T17:22:27;3.33;;;3.00;;
51602;SDS011;37954;51.980;5.850;2022-08-19T17:26:39;5.07;;;3.88;;
51602;SDS011;37954;51.980;5.850;2022-08-19T17:30:51;4.93;;;3.78;;
51602;SDS011;37954;51.980;5.850;2022-08-19T17:35:04;4.45;;;3.47;;
51602;SDS011;37954;51.980;5.850;2022-08-19T17:39:16;3.50;;;3.20;;
51602;SDS011;37954;51.980;5.850;2022-08-19T17:43:27;6.57;;;3.63;;
51602;SDS011;37954;51.980;5.850;2022-08-19T17:47:44;6.00;;;3.45;;
51602;SDS011;37954;51.980;5.850;2022-08-19T17:51:56;4.38;;;3.08;;
51602;SDS011;37954;51.980;5.850;2022-08-19T17:56:09;6.93;;;3.50;;
51602;SDS011;37954;51.980;5.850;2022-08-19T18:00:21;3.33;;;3.03;;
51602;SDS011;37954;51.980;5.850;2022-08-19T18:04:36;5.68;;;3.60;;
51602;SDS011;37954;51.980;5.850;2022-08-19T18:08:48;3.35;;;3.03;;
51602;SDS011;37954;51.980;5.850;2022-08-19T18:13:00;3.70;;;2.70;;
51602;SDS011;37954;51.980;5.850;2022-08-19T18:17:27;3.05;;;2.55;;
51602;SDS011;37954;51.980;5.850;2022-08-19T18:21:40;3.15;;;2.88;;
51602;SDS011;37954;51.980;5.850;2022-08-19T18:25:52;3.17;;;2.88;;
51602;SDS011;37954;51.980;5.850;2022-08-19T18:30:06;3.28;;;2.92;;
51602;SDS011;37954;51.980;5.850;2022-08-19T18:34:19;4.07;;;3.22;;
51602;SDS011;37954;51.980;5.850;2022-08-19T18:38:30;4.07;;;3.25;;
51602;SDS011;37954;51.980;5.850;2022-08-19T18:43:01;2.85;;;2.53;;
51602;SDS011;37954;51.980;5.850;2022-08-19T18:47:25;4.00;;;3.42;;
51602;SDS011;37954;51.980;5.850;2022-08-19T18:51:56;2.80;;;2.60;;
51602;SDS011;37954;51.980;5.850;2022-08-19T18:56:09;3.30;;;3.00;;
51602;SDS011;37954;51.980;5.850;2022-08-19T19:00:23;3.42;;;2.88;;
51602;SDS011;37954;51.980;5.850;2022-08-19T19:04:35;3.40;;;3.10;;
51602;SDS011;37954;51.980;5.850;2022-08-19T19:08:51;3.58;;;3.28;;
51602;SDS011;37954;51.980;5.850;2022-08-19T19:13:04;3.55;;;3.15;;
51602;SDS011;37954;51.980;5.850;2022-08-19T19:17:16;3.97;;;3.38;;
51602;SDS011;37954;51.980;5.850;2022-08-19T19:21:28;3.13;;;2.83;;
51602;SDS011;37954;51.980;5.850;2022-08-19T19:25:44;3.08;;;2.80;;
51602;SDS011;37954;51.980;5.850;2022-08-19T19:30:01;4.25;;;3.17;;
51602;SDS011;37954;51.980;5.850;2022-08-19T19:34:13;3.28;;;2.97;;
51602;SDS011;37954;51.980;5.850;2022-08-19T19:38:40;4.32;;;3.47;;
51602;SDS011;37954;51.980;5.850;2022-08-19T19:42:59;4.00;;;2.72;;
51602;SDS011;37954;51.980;5.850;2022-08-19T19:47:10;2.75;;;2.55;;
51602;SDS011;37954;51.980;5.850;2022-08-19T19:51:23;2.75;;;2.55;;
51602;SDS011;37954;51.980;5.850;2022-08-19T19:55:35;2.65;;;2.45;;
51602;SDS011;37954;51.980;5.850;2022-08-19T19:59:47;3.22;;;2.80;;
51602;SDS011;37954;51.980;5.850;2022-08-19T20:04:02;6.15;;;2.67;;
51602;SDS011;37954;51.980;5.850;2022-08-19T20:08:14;3.33;;;2.90;;
51602;SDS011;37954;51.980;5.850;2022-08-19T20:12:44;3.88;;;2.85;;
51602;SDS011;37954;51.980;5.850;2022-08-19T20:16:56;3.17;;;2.88;;
51602;SDS011;37954;51.980;5.850;2022-08-19T20:21:09;4.13;;;2.95;;
51602;SDS011;37954;51.980;5.850;2022-08-19T20:25:21;3.13;;;2.88;;
51602;SDS011;37954;51.980;5.850;2022-08-19T20:29:33;3.58;;;3.22;;
51602;SDS011;37954;51.980;5.850;2022-08-19T20:33:51;2.40;;;2.20;;
51602;SDS011;37954;51.980;5.850;2022-08-19T20:38:03;5.35;;;2.80;;
51602;SDS011;37954;51.980;5.850;2022-08-19T20:42:16;4.15;;;2.40;;
51602;SDS011;37954;51.980;5.850;2022-08-19T20:46:28;3.15;;;2.80;;
51602;SDS011;37954;51.980;5.850;2022-08-19T20:50:40;3.00;;;2.72;;
51602;SDS011;37954;51.980;5.850;2022-08-19T20:54:52;5.05;;;2.65;;
51602;SDS011;37954;51.980;5.850;2022-08-19T20:59:07;3.03;;;2.67;;
51602;SDS011;37954;51.980;5.850;2022-08-19T21:03:22;3.38;;;3.08;;
51602;SDS011;37954;51.980;5.850;2022-08-19T21:07:37;4.55;;;2.63;;
51602;SDS011;37954;51.980;5.850;2022-08-19T21:11:50;3.67;;;3.00;;
51602;SDS011;37954;51.980;5.850;2022-08-19T21:16:01;3.20;;;2.88;;
51602;SDS011;37954;51.980;5.850;2022-08-19T21:20:19;3.08;;;2.78;;
51602;SDS011;37954;51.980;5.850;2022-08-19T21:24:31;3.72;;;3.42;;
51602;SDS011;37954;51.980;5.850;2022-08-19T21:28:42;2.90;;;2.70;;
51602;SDS011;37954;51.980;5.850;2022-08-19T21:32:54;3.33;;;3.03;;
51602;SDS011;37954;51.980;5.850;2022-08-19T21:37:06;3.90;;;2.92;;
51602;SDS011;37954;51.980;5.850;2022-08-19T21:41:30;4.28;;;3.45;;
51602;SDS011;37954;51.980;5.850;2022-08-19T21:45:42;3.67;;;3.25;;
51602;SDS011;37954;51.980;5.850;2022-08-19T21:49:54;4.28;;;3.50;;
51602;SDS011;37954;51.980;5.850;2022-08-19T21:54:05;3.80;;;3.45;;
51602;SDS011;37954;51.980;5.850;2022-08-19T21:58:24;3.85;;;3.53;;
51602;SDS011;37954;51.980;5.850;2022-08-19T22:02:40;3.53;;;3.28;;
51602;SDS011;37954;51.980;5.850;2022-08-19T22:06:52;4.53;;;4.03;;
51602;SDS011;37954;51.980;5.850;2022-08-19T22:11:03;4.75;;;4.35;;
51602;SDS011;37954;51.980;5.850;2022-08-19T22:15:15;3.90;;;3.58;;
51602;SDS011;37954;51.980;5.850;2022-08-19T22:19:28;8.38;;;4.07;;
51602;SDS011;37954;51.980;5.850;2022-08-19T22:23:40;4.65;;;4.25;;
51602;SDS011;37954;51.980;5.850;2022-08-19T22:27:54;4.78;;;4.38;;
51602;SDS011;37954;51.980;5.850;2022-08-19T22:32:10;4.90;;;4.28;;
51602;SDS011;37954;51.980;5.850;2022-08-19T22:36:38;8.70;;;4.50;;
51602;SDS011;37954;51.980;5.850;2022-08-19T22:40:50;6.78;;;4.40;;
51602;SDS011;37954;51.980;5.850;2022-08-19T22:45:03;4.55;;;4.07;;
51602;SDS011;37954;51.980;5.850;2022-08-19T22:49:19;5.10;;;4.60;;
51602;SDS011;37954;51.980;5.850;2022-08-19T22:53:31;5.78;;;4.80;;
51602;SDS011;37954;51.980;5.850;2022-08-19T22:57:47;4.35;;;3.97;;
51602;SDS011;37954;51.980;5.850;2022-08-19T23:01:59;5.35;;;4.68;;
51602;SDS011;37954;51.980;5.850;2022-08-19T23:06:11;5.68;;;4.80;;
51602;SDS011;37954;51.980;5.850;2022-08-19T23:10:24;5.10;;;4.63;;
51602;SDS011;37954;51.980;5.850;2022-08-19T23:14:39;8.70;;;4.75;;
51602;SDS011;37954;51.980;5.850;2022-08-19T23:18:51;5.95;;;5.38;;
51602;SDS011;37954;51.980;5.850;2022-08-19T23:23:08;5.43;;;4.93;;
51602;SDS011;37954;51.980;5.850;2022-08-19T23:27:21;5.80;;;4.88;;
51602;SDS011;37954;51.980;5.850;2022-08-19T23:31:51;5.45;;;4.93;;
51602;SDS011;37954;51.980;5.850;2022-08-19T23:36:05;5.07;;;4.57;;
51602;SDS011;37954;51.980;5.850;2022-08-19T23:40:24;6.35;;;5.22;;
51602;SDS011;37954;51.980;5.850;2022-08-19T23:44:37;7.13;;;5.40;;
51602;SDS011;37954;51.980;5.850;2022-08-19T23:49:02;5.15;;;4.72;;
51602;SDS011;37954;51.980;5.850;2022-08-19T23:53:14;5.07;;;4.63;;
51602;SDS011;37954;51.980;5.850;2022-08-19T23:57:26;6.22;;;5.05;;
